createdAt,value
2018-07-26T00:00:52.951Z,25.00
2018-07-26T00:03:20.598Z,25.03
2018-07-26T00:05:48.156Z,25.08
2018-07-26T00:08:15.734Z,25.05
2018-07-26T00:10:43.376Z,24.95
2018-07-26T00:13:10.956Z,24.91
2018-07-26T00:15:38.531Z,24.83
2018-07-26T00:18:06.162Z,24.76
2018-07-26T00:20:33.725Z,24.70
2018-07-26T00:23:01.296Z,24.68
2018-07-26T00:25:29.000Z,24.67
2018-07-26T00:27:56.567Z,24.64
2018-07-26T00:30:24.128Z,24.61
2018-07-26T00:32:51.764Z,24.61
2018-07-26T00:35:19.332Z,24.63
2018-07-26T00:37:46.921Z,24.63
2018-07-26T00:40:14.633Z,24.59
2018-07-26T00:42:42.192Z,24.51
2018-07-26T00:45:09.796Z,24.47
2018-07-26T00:47:37.403Z,24.42
2018-07-26T00:50:05.017Z,24.41
2018-07-26T00:52:32.620Z,24.35
2018-07-26T00:55:00.289Z,24.32
2018-07-26T00:57:27.852Z,24.28
2018-07-26T00:59:55.455Z,24.23
2018-07-26T01:02:23.107Z,24.22
2018-07-26T01:04:50.695Z,24.19
2018-07-26T01:07:18.256Z,24.16
2018-07-26T01:09:45.912Z,24.16
2018-07-26T01:12:13.475Z,24.13
2018-07-26T01:14:41.045Z,24.09
2018-07-26T01:17:08.692Z,24.07
2018-07-26T01:19:36.299Z,24.06
2018-07-26T01:22:03.992Z,24.04
2018-07-26T01:24:31.630Z,24.01
2018-07-26T01:27:00.952Z,23.99
2018-07-26T01:29:28.525Z,23.95
2018-07-26T01:31:56.135Z,23.92
2018-07-26T01:34:24.335Z,23.88
2018-07-26T01:36:52.469Z,23.88
2018-07-26T01:39:20.156Z,23.90
2018-07-26T01:41:47.984Z,23.84
2018-07-26T01:44:21.233Z,23.79
2018-07-26T01:46:48.860Z,23.75
2018-07-26T01:49:16.605Z,23.74
2018-07-26T01:51:44.246Z,23.73
2018-07-26T01:54:11.828Z,23.76
2018-07-26T01:56:39.424Z,23.71
2018-07-26T01:59:07.047Z,23.67
2018-07-26T02:01:34.664Z,23.66
2018-07-26T02:04:02.261Z,23.61
2018-07-26T02:06:29.893Z,23.56
2018-07-26T02:08:57.528Z,23.51
2018-07-26T02:11:25.169Z,23.46
2018-07-26T02:13:52.782Z,23.43
2018-07-26T02:16:20.461Z,23.38
2018-07-26T02:18:48.044Z,23.35
2018-07-26T02:21:15.627Z,23.24
2018-07-26T02:23:43.180Z,23.23
2018-07-26T02:26:10.744Z,23.22
2018-07-26T02:28:38.368Z,23.24
2018-07-26T02:31:06.162Z,23.26
2018-07-26T02:33:33.672Z,23.27
2018-07-26T02:36:01.326Z,23.27
2018-07-26T02:38:28.900Z,23.21
2018-07-26T02:40:56.493Z,23.17
2018-07-26T02:43:24.129Z,23.12
2018-07-26T02:45:51.739Z,23.08
2018-07-26T02:48:19.364Z,23.06
2018-07-26T02:50:47.037Z,23.04
2018-07-26T02:53:14.628Z,23.01
2018-07-26T02:55:42.191Z,22.95
2018-07-26T02:58:09.819Z,22.92
2018-07-26T03:00:37.458Z,22.88
2018-07-26T03:03:05.355Z,22.81
2018-07-26T03:05:33.038Z,22.79
2018-07-26T03:08:00.611Z,22.77
2018-07-26T03:10:28.188Z,22.73
2018-07-26T03:12:55.876Z,22.70
2018-07-26T03:15:23.470Z,22.63
2018-07-26T03:17:51.090Z,22.61
2018-07-26T03:20:18.684Z,22.55
2018-07-26T03:22:46.285Z,22.55
2018-07-26T03:25:13.846Z,22.52
2018-07-26T03:27:41.440Z,22.45
2018-07-26T03:30:09.052Z,22.46
2018-07-26T03:32:36.628Z,22.45
2018-07-26T03:35:04.271Z,22.42
2018-07-26T03:37:31.879Z,22.39
2018-07-26T03:39:59.457Z,22.40
2018-07-26T03:42:28.099Z,22.42
2018-07-26T03:44:55.672Z,22.38
2018-07-26T03:47:23.228Z,22.38
2018-07-26T03:49:50.860Z,22.34
2018-07-26T03:52:18.477Z,22.34
2018-07-26T03:54:46.053Z,22.28
2018-07-26T03:57:13.672Z,22.26
2018-07-26T03:59:41.223Z,22.24
2018-07-26T04:02:08.892Z,22.21
2018-07-26T04:04:36.504Z,22.22
2018-07-26T04:07:05.211Z,22.25
2018-07-26T04:09:32.811Z,22.27
2018-07-26T04:12:00.395Z,22.27
2018-07-26T04:14:27.972Z,22.24
2018-07-26T04:16:55.558Z,22.27
2018-07-26T04:19:23.152Z,22.20
2018-07-26T04:21:50.723Z,22.20
2018-07-26T04:24:18.320Z,22.20
2018-07-26T04:26:45.988Z,22.23
2018-07-26T04:29:13.606Z,22.23
2018-07-26T04:31:41.215Z,22.23
2018-07-26T04:34:08.857Z,22.26
2018-07-26T04:36:36.438Z,22.27
2018-07-26T04:39:07.008Z,22.30
2018-07-26T04:41:34.612Z,22.35
2018-07-26T04:44:02.285Z,22.43
2018-07-26T04:46:29.880Z,22.48
2018-07-26T04:48:57.514Z,22.51
2018-07-26T04:51:25.112Z,22.58
2018-07-26T04:53:52.760Z,22.56
2018-07-26T04:56:20.408Z,22.59
2018-07-26T04:58:48.056Z,22.64
2018-07-26T05:01:15.640Z,22.69
2018-07-26T05:03:43.251Z,22.74
2018-07-26T05:06:10.876Z,22.80
2018-07-26T05:08:38.476Z,22.84
2018-07-26T05:11:06.257Z,22.90
2018-07-26T05:13:34.891Z,22.94
2018-07-26T05:16:02.505Z,22.99
2018-07-26T05:18:30.180Z,23.05
2018-07-26T05:20:57.755Z,23.12
2018-07-26T05:23:25.344Z,23.17
2018-07-26T05:25:53.094Z,23.20
2018-07-26T05:28:20.703Z,23.30
2018-07-26T05:30:48.311Z,23.40
2018-07-26T05:33:15.957Z,23.46
2018-07-26T05:35:43.572Z,23.56
2018-07-26T05:38:11.177Z,23.71
2018-07-26T05:40:38.790Z,23.80
2018-07-26T05:43:06.439Z,23.82
2018-07-26T05:45:34.040Z,23.87
2018-07-26T05:48:01.695Z,24.00
2018-07-26T05:50:29.284Z,24.13
2018-07-26T05:52:56.878Z,24.26
2018-07-26T05:55:24.531Z,24.38
2018-07-26T05:57:52.120Z,24.42
2018-07-26T06:00:19.766Z,24.56
2018-07-26T06:02:47.416Z,24.71
2018-07-26T06:05:15.017Z,24.80
2018-07-26T06:07:42.631Z,24.99
2018-07-26T06:10:10.278Z,25.15
2018-07-26T06:12:37.965Z,25.26
2018-07-26T06:15:08.314Z,25.25
2018-07-26T06:17:35.997Z,25.36
2018-07-26T06:20:04.791Z,25.45
2018-07-26T06:22:32.393Z,25.62
2018-07-26T06:25:00.023Z,25.76
2018-07-26T06:27:27.634Z,25.96
2018-07-26T06:29:56.248Z,26.17
2018-07-26T06:32:23.905Z,26.36
2018-07-26T06:34:51.494Z,26.45
2018-07-26T06:37:19.201Z,26.55
2018-07-26T06:39:46.956Z,26.75
2018-07-26T06:42:14.556Z,26.85
2018-07-26T06:44:42.155Z,27.00
2018-07-26T06:47:10.224Z,27.18
2018-07-26T06:49:37.789Z,27.39
2018-07-26T06:52:05.504Z,27.57
2018-07-26T06:54:33.141Z,27.78
2018-07-26T06:57:00.738Z,27.97
2018-07-26T06:59:28.366Z,28.16
2018-07-26T07:01:56.000Z,28.29
2018-07-26T07:04:23.715Z,28.54
2018-07-26T07:06:51.304Z,28.66
2018-07-26T07:09:19.012Z,28.73
2018-07-26T07:11:46.697Z,28.82
2018-07-26T07:14:14.296Z,28.96
2018-07-26T07:16:41.926Z,29.18
2018-07-26T07:19:09.520Z,29.32
2018-07-26T07:21:37.348Z,29.53
2018-07-26T07:24:05.089Z,29.60
2018-07-26T07:26:32.815Z,29.79
2018-07-26T07:29:00.432Z,30.09
2018-07-26T07:31:29.140Z,30.34
2018-07-26T07:33:56.740Z,30.51
2018-07-26T07:36:24.317Z,30.67
2018-07-26T07:38:51.955Z,30.82
2018-07-26T07:41:19.599Z,31.06
2018-07-26T07:43:47.204Z,31.23
2018-07-26T07:46:14.857Z,31.43
2018-07-26T07:48:42.537Z,31.60
2018-07-26T07:51:10.120Z,31.66
2018-07-26T07:53:37.768Z,31.77
2018-07-26T07:56:05.454Z,31.97
2018-07-26T07:58:33.048Z,32.20
2018-07-26T08:01:00.659Z,32.37
2018-07-26T08:03:28.260Z,32.45
2018-07-26T08:05:55.836Z,32.60
2018-07-26T08:08:23.458Z,32.73
2018-07-26T08:10:51.052Z,32.92
2018-07-26T08:13:18.619Z,33.11
2018-07-26T08:15:46.318Z,33.30
2018-07-26T08:18:13.941Z,33.26
2018-07-26T08:20:41.571Z,33.38
2018-07-26T08:23:09.206Z,33.36
2018-07-26T08:25:36.873Z,33.57
2018-07-26T08:28:04.681Z,33.76
2018-07-26T08:30:32.443Z,33.88
2018-07-26T08:33:00.045Z,34.35
2018-07-26T08:35:27.672Z,34.78
2018-07-26T08:37:55.315Z,35.18
2018-07-26T08:40:22.984Z,35.65
2018-07-26T08:42:50.652Z,36.01
2018-07-26T08:45:18.344Z,36.51
2018-07-26T08:47:45.986Z,36.88
2018-07-26T08:50:13.580Z,37.20
2018-07-26T08:52:41.239Z,37.10
2018-07-26T08:55:08.867Z,37.22
2018-07-26T08:57:36.494Z,37.47
2018-07-26T09:00:05.087Z,37.84
2018-07-26T09:02:32.764Z,38.36
2018-07-26T09:05:00.370Z,38.68
2018-07-26T09:07:27.979Z,39.12
2018-07-26T09:09:55.599Z,37.93
2018-07-26T09:12:23.217Z,36.83
2018-07-26T09:14:50.837Z,36.39
2018-07-26T09:17:18.488Z,35.82
2018-07-26T09:19:46.128Z,36.18
2018-07-26T09:22:13.715Z,35.86
2018-07-26T09:24:42.366Z,36.00
2018-07-26T09:27:11.263Z,36.72
2018-07-26T09:29:38.986Z,36.04
2018-07-26T09:32:06.763Z,36.38
2018-07-26T09:34:34.826Z,36.45
2018-07-26T09:37:02.494Z,36.06
2018-07-26T09:39:30.070Z,35.76
2018-07-26T09:41:57.711Z,36.58
2018-07-26T09:44:25.352Z,37.46
2018-07-26T09:46:52.937Z,37.42
2018-07-26T09:49:20.633Z,36.36
2018-07-26T09:51:48.306Z,35.71
2018-07-26T09:54:15.896Z,35.36
2018-07-26T09:56:43.494Z,34.93
2018-07-26T09:59:11.125Z,34.44
2018-07-26T10:01:39.519Z,34.48
2018-07-26T10:04:07.120Z,35.75
2018-07-26T10:06:34.755Z,36.70
2018-07-26T10:09:02.491Z,37.67
2018-07-26T10:11:30.120Z,38.44
2018-07-26T10:13:57.775Z,39.05
2018-07-26T10:16:25.542Z,39.52
2018-07-26T10:18:53.126Z,39.35
2018-07-26T10:21:20.864Z,39.41
2018-07-26T10:23:48.508Z,39.89
2018-07-26T10:26:16.104Z,40.21
2018-07-26T10:28:43.747Z,40.58
2018-07-26T10:31:11.388Z,40.38
2018-07-26T10:33:38.979Z,39.58
2018-07-26T10:36:06.596Z,38.36
2018-07-26T10:38:34.197Z,37.95
2018-07-26T10:41:01.817Z,37.94
2018-07-26T10:43:29.448Z,37.83
2018-07-26T10:45:57.050Z,37.86
2018-07-26T10:48:24.648Z,38.58
2018-07-26T10:50:52.292Z,38.85
2018-07-26T10:53:19.936Z,39.72
2018-07-26T10:55:47.536Z,39.76
2018-07-26T10:58:15.187Z,40.50
2018-07-26T11:00:42.782Z,41.16
2018-07-26T11:03:10.531Z,41.74
2018-07-26T11:05:38.163Z,42.02
2018-07-26T11:08:05.799Z,42.20
2018-07-26T11:10:33.399Z,41.65
2018-07-26T11:13:01.055Z,41.33
2018-07-26T11:15:31.721Z,40.08
2018-07-26T11:18:00.201Z,39.66
2018-07-26T11:20:27.834Z,39.54
2018-07-26T11:22:55.437Z,39.29
2018-07-26T11:25:23.120Z,40.59
2018-07-26T11:27:50.768Z,41.49
2018-07-26T11:30:18.385Z,42.06
2018-07-26T11:32:46.014Z,42.61
2018-07-26T11:35:13.612Z,43.34
2018-07-26T11:37:41.392Z,43.75
2018-07-26T11:40:09.044Z,43.81
2018-07-26T11:42:36.774Z,44.18
2018-07-26T11:45:05.340Z,44.80
2018-07-26T11:47:32.964Z,45.14
2018-07-26T11:50:00.629Z,45.48
2018-07-26T11:52:28.179Z,45.07
2018-07-26T11:54:55.790Z,43.95
2018-07-26T11:57:23.393Z,43.20
2018-07-26T11:59:50.969Z,44.31
2018-07-26T12:02:18.616Z,44.88
2018-07-26T12:04:46.248Z,45.17
2018-07-26T12:07:13.870Z,45.21
2018-07-26T12:09:41.558Z,45.58
2018-07-26T12:12:10.157Z,46.17
2018-07-26T12:14:38.120Z,46.48
2018-07-26T12:17:05.868Z,46.37
2018-07-26T12:19:33.462Z,43.76
2018-07-26T12:22:01.149Z,41.69
2018-07-26T12:24:28.756Z,40.52
2018-07-26T12:26:56.429Z,40.63
2018-07-26T12:29:24.124Z,39.60
2018-07-26T12:31:51.744Z,40.27
2018-07-26T12:34:19.407Z,42.48
2018-07-26T12:36:47.009Z,43.78
2018-07-26T12:39:14.788Z,44.80
2018-07-26T12:41:42.373Z,45.41
2018-07-26T12:44:10.189Z,45.98
2018-07-26T12:46:37.909Z,46.21
2018-07-26T12:49:05.550Z,46.49
2018-07-26T12:51:33.517Z,46.82
2018-07-26T12:54:01.164Z,46.78
2018-07-26T12:56:29.251Z,45.94
2018-07-26T12:58:56.961Z,46.66
2018-07-26T13:01:24.901Z,47.26
2018-07-26T13:03:52.604Z,47.62
2018-07-26T13:06:20.629Z,47.84
2018-07-26T13:08:48.271Z,47.72
2018-07-26T13:11:15.960Z,47.97
2018-07-26T13:13:43.692Z,48.31
2018-07-26T13:16:11.374Z,48.47
2018-07-26T13:18:38.989Z,48.68
2018-07-26T13:21:07.000Z,48.67
2018-07-26T13:23:34.633Z,48.73
2018-07-26T13:26:02.265Z,47.57
2018-07-26T13:28:29.873Z,47.48
2018-07-26T13:30:57.544Z,47.95
2018-07-26T13:33:25.232Z,48.33
2018-07-26T13:35:52.866Z,48.58
2018-07-26T13:38:20.505Z,48.72
2018-07-26T13:40:48.093Z,48.79
2018-07-26T13:43:15.674Z,48.86
2018-07-26T13:45:43.400Z,47.93
2018-07-26T13:48:10.975Z,48.45
2018-07-26T13:50:38.588Z,48.77
2018-07-26T13:53:06.209Z,48.83
2018-07-26T13:55:33.792Z,48.68
2018-07-26T13:58:01.443Z,48.65
2018-07-26T14:00:29.147Z,48.85
2018-07-26T14:02:56.777Z,48.97
2018-07-26T14:05:24.373Z,49.08
2018-07-26T14:07:51.977Z,49.18
2018-07-26T14:10:19.588Z,49.04
2018-07-26T14:12:47.184Z,49.21
2018-07-26T14:15:14.837Z,49.24
2018-07-26T14:17:42.437Z,48.52
2018-07-26T14:20:11.333Z,48.53
2018-07-26T14:22:39.449Z,48.76
2018-07-26T14:25:07.090Z,48.88
2018-07-26T14:27:34.689Z,48.88
2018-07-26T14:30:02.411Z,47.59
2018-07-26T14:32:30.012Z,45.22
2018-07-26T14:34:57.644Z,43.14
2018-07-26T14:37:25.315Z,43.32
2018-07-26T14:39:52.964Z,42.60
2018-07-26T14:42:21.650Z,43.91
2018-07-26T14:44:49.355Z,45.19
2018-07-26T14:47:16.991Z,45.64
2018-07-26T14:49:44.612Z,45.90
2018-07-26T14:52:12.269Z,46.06
2018-07-26T14:54:39.878Z,46.24
2018-07-26T14:57:07.746Z,46.26
2018-07-26T14:59:35.374Z,45.90
2018-07-26T15:02:03.044Z,45.87
2018-07-26T15:04:30.662Z,45.79
2018-07-26T15:06:58.303Z,45.68
2018-07-26T15:09:25.894Z,45.53
2018-07-26T15:11:53.508Z,45.34
2018-07-26T15:14:21.221Z,44.95
2018-07-26T15:16:48.824Z,44.45
2018-07-26T15:19:16.852Z,43.82
2018-07-26T15:21:44.560Z,43.26
2018-07-26T15:24:12.280Z,42.95
2018-07-26T15:26:40.103Z,42.49
2018-07-26T15:29:07.866Z,41.92
2018-07-26T15:31:35.724Z,40.79
2018-07-26T15:34:03.456Z,39.78
2018-07-26T15:36:31.153Z,39.47
2018-07-26T15:38:58.810Z,39.27
2018-07-26T15:41:26.431Z,38.85
2018-07-26T15:43:54.100Z,38.48
2018-07-26T15:46:21.701Z,38.09
2018-07-26T15:48:49.499Z,37.72
2018-07-26T15:51:17.230Z,37.35
2018-07-26T15:53:44.784Z,37.12
2018-07-26T15:56:12.416Z,36.94
2018-07-26T15:58:40.318Z,36.81
2018-07-26T16:01:08.056Z,36.72
2018-07-26T16:03:35.838Z,36.59
2018-07-26T16:06:03.493Z,36.39
2018-07-26T16:08:31.143Z,36.26
2018-07-26T16:10:58.789Z,36.16
2018-07-26T16:13:26.436Z,36.03
2018-07-26T16:15:54.092Z,35.76
2018-07-26T16:18:21.686Z,35.66
2018-07-26T16:20:49.312Z,35.57
2018-07-26T16:23:16.986Z,35.50
2018-07-26T16:25:44.671Z,35.22
2018-07-26T16:28:12.395Z,35.14
2018-07-26T16:30:40.036Z,35.07
2018-07-26T16:33:07.657Z,35.05
2018-07-26T16:35:35.344Z,35.04
2018-07-26T16:38:02.920Z,35.08
2018-07-26T16:40:30.720Z,35.08
2018-07-26T16:42:58.445Z,35.01
2018-07-26T16:45:26.065Z,34.97
2018-07-26T16:47:53.778Z,34.86
2018-07-26T16:50:21.425Z,34.57
2018-07-26T16:52:49.022Z,34.38
2018-07-26T16:55:16.664Z,34.26
2018-07-26T16:57:44.375Z,34.20
2018-07-26T17:00:12.088Z,34.07
2018-07-26T17:02:39.782Z,34.03
2018-07-26T17:05:07.795Z,33.93
2018-07-26T17:07:35.400Z,33.83
2018-07-26T17:10:04.170Z,33.77
2018-07-26T17:12:31.910Z,33.70
2018-07-26T17:14:59.552Z,33.62
2018-07-26T17:17:27.178Z,33.56
2018-07-26T17:19:54.972Z,33.48
2018-07-26T17:22:22.596Z,33.43
2018-07-26T17:24:50.236Z,33.41
2018-07-26T17:27:18.088Z,33.32
2018-07-26T17:29:45.702Z,33.30
2018-07-26T17:32:13.400Z,33.29
2018-07-26T17:34:41.464Z,33.21
2018-07-26T17:37:09.271Z,33.10
2018-07-26T17:39:36.955Z,33.05
2018-07-26T17:42:04.655Z,32.97
2018-07-26T17:44:32.260Z,32.90
2018-07-26T17:46:59.872Z,32.71
2018-07-26T17:49:27.515Z,32.63
2018-07-26T17:51:55.134Z,32.59
2018-07-26T17:54:22.809Z,32.55
2018-07-26T17:56:50.579Z,32.49
2018-07-26T17:59:18.188Z,32.36
2018-07-26T18:01:45.820Z,32.31
2018-07-26T18:04:13.533Z,32.22
2018-07-26T18:06:41.144Z,32.14
2018-07-26T18:09:09.228Z,32.12
2018-07-26T18:11:36.921Z,32.05
2018-07-26T18:14:04.592Z,32.00
2018-07-26T18:16:32.254Z,31.97
2018-07-26T18:19:00.017Z,31.89
2018-07-26T18:21:27.623Z,31.81
2018-07-26T18:23:55.247Z,31.74
2018-07-26T18:26:22.868Z,31.65
2018-07-26T18:28:50.493Z,31.61
2018-07-26T18:31:18.156Z,31.53
2018-07-26T18:33:45.999Z,31.45
2018-07-26T18:36:13.713Z,31.35
2018-07-26T18:38:41.370Z,31.23
2018-07-26T18:41:09.055Z,31.18
2018-07-26T18:43:36.699Z,31.12
2018-07-26T18:46:05.074Z,31.07
2018-07-26T18:48:32.787Z,31.03
2018-07-26T18:51:00.422Z,30.97
2018-07-26T18:53:28.049Z,30.90
2018-07-26T18:55:55.741Z,30.88
2018-07-26T18:58:23.379Z,30.84
2018-07-26T19:00:51.025Z,30.77
2018-07-26T19:03:18.737Z,30.69
2018-07-26T19:05:46.409Z,30.61
2018-07-26T19:08:14.209Z,30.54
2018-07-26T19:10:42.005Z,30.50
2018-07-26T19:13:10.326Z,30.46
2018-07-26T19:15:38.479Z,30.42
2018-07-26T19:18:07.438Z,30.34
2018-07-26T19:20:35.628Z,30.31
2018-07-26T19:23:03.393Z,30.27
2018-07-26T19:25:31.272Z,30.19
2018-07-26T19:27:58.991Z,30.12
2018-07-26T19:30:26.617Z,30.03
2018-07-26T19:32:54.341Z,29.95
2018-07-26T19:35:22.025Z,29.89
2018-07-26T19:37:50.561Z,29.80
2018-07-26T19:40:18.972Z,29.73
2018-07-26T19:42:46.791Z,29.68
2018-07-26T19:45:15.028Z,29.59
2018-07-26T19:47:42.851Z,29.51
2018-07-26T19:50:10.659Z,29.48
2018-07-26T19:52:38.980Z,29.36
2018-07-26T19:55:09.949Z,29.30
2018-07-26T19:57:37.872Z,29.24
2018-07-26T20:00:06.607Z,29.18
2018-07-26T20:02:35.412Z,29.12
2018-07-26T20:05:04.010Z,29.05
2018-07-26T20:07:31.788Z,28.96
2018-07-26T20:09:59.644Z,28.87
2018-07-26T20:12:27.494Z,28.80
2018-07-26T20:14:55.452Z,28.71
2018-07-26T20:17:23.341Z,28.64
2018-07-26T20:19:51.111Z,28.55
2018-07-26T20:22:19.074Z,28.48
2018-07-26T20:24:48.242Z,28.42
2018-07-26T20:27:16.507Z,28.37
2018-07-26T20:29:44.544Z,28.31
2018-07-26T20:32:12.527Z,28.22
2018-07-26T20:34:40.565Z,28.14
2018-07-26T20:37:09.016Z,28.08
2018-07-26T20:39:36.869Z,28.03
2018-07-26T20:42:04.700Z,27.99
2018-07-26T20:44:32.325Z,27.94
2018-07-26T20:47:01.192Z,27.89
2018-07-26T20:49:28.792Z,27.83
2018-07-26T20:51:56.382Z,27.74
2018-07-26T20:54:24.054Z,27.68
2018-07-26T20:56:51.733Z,27.62
2018-07-26T20:59:19.364Z,27.58
2018-07-26T21:01:47.071Z,27.51
2018-07-26T21:04:18.692Z,27.46
2018-07-26T21:06:46.317Z,27.44
2018-07-26T21:09:14.228Z,27.39
2018-07-26T21:11:42.269Z,27.36
2018-07-26T21:14:09.928Z,27.38
2018-07-26T21:16:37.599Z,27.29
2018-07-26T21:19:05.228Z,27.21
2018-07-26T21:21:32.893Z,27.15
2018-07-26T21:24:00.526Z,27.08
2018-07-26T21:26:28.192Z,27.04
2018-07-26T21:28:55.921Z,27.02
2018-07-26T21:31:23.796Z,26.99
2018-07-26T21:33:51.376Z,26.92
2018-07-26T21:36:19.177Z,26.87
2018-07-26T21:38:46.764Z,26.83
2018-07-26T21:41:14.465Z,26.79
2018-07-26T21:43:42.096Z,26.78
2018-07-26T21:46:09.696Z,26.70
2018-07-26T21:48:37.284Z,26.67
2018-07-26T21:51:04.901Z,26.65
2018-07-26T21:53:32.468Z,26.63
2018-07-26T21:56:00.054Z,26.61
2018-07-26T21:58:27.666Z,26.58
2018-07-26T22:00:56.155Z,26.54
2018-07-26T22:03:24.083Z,26.51
2018-07-26T22:05:51.795Z,26.49
2018-07-26T22:08:19.580Z,26.45
2018-07-26T22:10:47.681Z,26.43
2018-07-26T22:13:15.320Z,26.40
2018-07-26T22:15:42.909Z,26.38
2018-07-26T22:18:10.515Z,26.34
2018-07-26T22:20:38.178Z,26.31
2018-07-26T22:23:06.292Z,26.26
2018-07-26T22:25:33.934Z,26.29
2018-07-26T22:28:01.519Z,26.24
2018-07-26T22:30:29.132Z,26.20
2018-07-26T22:32:56.936Z,26.19
2018-07-26T22:35:24.578Z,26.14
2018-07-26T22:37:52.155Z,26.01
2018-07-26T22:40:19.737Z,25.96
2018-07-26T22:42:47.440Z,25.98
2018-07-26T22:45:15.071Z,26.03
2018-07-26T22:47:42.663Z,25.99
2018-07-26T22:50:10.313Z,25.97
2018-07-26T22:52:37.924Z,25.95
2018-07-26T22:55:05.706Z,25.93
2018-07-26T22:57:33.362Z,25.92
2018-07-26T23:00:00.953Z,25.87
2018-07-26T23:02:28.556Z,25.82
2018-07-26T23:04:56.165Z,25.80
2018-07-26T23:07:23.757Z,25.73
2018-07-26T23:09:51.451Z,25.69
2018-07-26T23:12:19.078Z,25.64
2018-07-26T23:14:46.672Z,25.64
2018-07-26T23:17:14.246Z,25.67
2018-07-26T23:19:41.883Z,25.62
2018-07-26T23:22:09.477Z,25.56
2018-07-26T23:24:37.074Z,25.47
2018-07-26T23:27:04.837Z,25.42
2018-07-26T23:29:32.442Z,25.42
2018-07-26T23:32:00.041Z,25.38
2018-07-26T23:34:27.668Z,25.36
2018-07-26T23:36:55.244Z,25.31
2018-07-26T23:39:22.851Z,25.30
2018-07-26T23:41:50.591Z,25.26
2018-07-26T23:44:18.169Z,25.23
2018-07-26T23:46:45.768Z,25.12
2018-07-26T23:49:13.427Z,25.07
2018-07-26T23:51:41.010Z,25.03
2018-07-26T23:54:08.623Z,25.00
2018-07-26T23:56:36.252Z,24.97
2018-07-26T23:59:04.025Z,24.95
